Time;durP1;ratioP1;P1;durP2;ratioP2;P2;SDS_P1;SDS_P2;PMS_P1;PMS_P2;Temp;Humidity;BMP_temperature;BMP_pressure;BME280_temperature;BME280_humidity;BME280_pressure;Samples;Min_cycle;Max_cycle;Signal;HPM_P1;HPM_P2
2023/09/08 00:00:44;;;;;;;15.38;11.20;;;;;;;;;;4999095;28;20041;-76
2023/09/08 00:03:09;;;;;;;14.00;10.38;;;;;;;;;;4986929;28;20087;-76
2023/09/08 00:05:35;;;;;;;14.38;10.82;;;;;;;;;;5007524;28;20025;-77
2023/09/08 00:08:00;;;;;;;12.75;10.45;;;;;;;;;;4991256;28;20039;-77
2023/09/08 00:10:25;;;;;;;10.77;9.52;;;;;;;;;;5009879;28;20094;-77
2023/09/08 00:12:50;;;;;;;12.35;9.50;;;;;;;;;;5001191;28;20511;-76
2023/09/08 00:15:16;;;;;;;14.35;11.20;;;;;;;;;;4978272;28;20465;-76
2023/09/08 00:17:41;;;;;;;16.42;12.18;;;;;;;;;;5008459;28;20026;-76
2023/09/08 00:20:08;;;;;;;14.02;10.75;;;;;;;;;;5001922;28;20098;-77
2023/09/08 00:22:34;;;;;;;14.98;10.43;;;;;;;;;;4994252;28;20032;-76
2023/09/08 00:24:59;;;;;;;15.45;11.00;;;;;;;;;;5001439;28;20093;-76
2023/09/08 00:27:24;;;;;;;14.90;11.38;;;;;;;;;;4998926;28;20110;-76
2023/09/08 00:29:49;;;;;;;18.63;10.75;;;;;;;;;;5010623;28;20018;-77
2023/09/08 00:32:15;;;;;;;13.63;10.48;;;;;;;;;;5001273;28;20038;-75
2023/09/08 00:34:41;;;;;;;14.93;10.02;;;;;;;;;;4990147;28;20041;-76
2023/09/08 00:37:07;;;;;;;16.17;10.68;;;;;;;;;;4972474;28;20042;-77
2023/09/08 00:39:35;;;;;;;21.73;10.70;;;;;;;;;;4990646;28;20114;-77
2023/09/08 00:42:00;;;;;;;17.83;11.40;;;;;;;;;;4990570;28;20042;-77
2023/09/08 00:44:26;;;;;;;16.75;11.07;;;;;;;;;;4975677;28;20452;-77
2023/09/08 00:46:51;;;;;;;14.30;11.23;;;;;;;;;;4978475;28;20148;-76
2023/09/08 00:49:16;;;;;;;20.13;12.63;;;;;;;;;;4990261;28;20389;-76
2023/09/08 00:51:42;;;;;;;18.13;12.18;;;;;;;;;;4996617;28;20064;-77
2023/09/08 00:54:08;;;;;;;15.93;11.73;;;;;;;;;;4994542;28;20763;-76
2023/09/08 00:56:34;;;;;;;19.55;12.32;;;;;;;;;;5003299;28;20163;-77
2023/09/08 00:59:00;;;;;;;18.50;11.98;;;;;;;;;;4983218;28;20353;-76
2023/09/08 01:01:25;;;;;;;16.13;11.70;;;;;;;;;;4979888;28;20035;-77
2023/09/08 01:03:50;;;;;;;16.00;11.70;;;;;;;;;;4973244;28;20439;-75
2023/09/08 01:06:16;;;;;;;21.98;12.38;;;;;;;;;;5006601;28;20065;-76
2023/09/08 01:08:43;;;;;;;17.58;12.57;;;;;;;;;;4985604;28;20476;-77
2023/09/08 01:11:09;;;;;;;26.65;15.18;;;;;;;;;;4996952;28;20453;-76
2023/09/08 01:13:34;;;;;;;21.75;14.38;;;;;;;;;;5009375;28;20143;-77
2023/09/08 01:16:01;;;;;;;21.63;14.13;;;;;;;;;;5008833;28;20030;-75
2023/09/08 01:18:26;;;;;;;23.42;14.95;;;;;;;;;;4991275;28;20122;-76
2023/09/08 01:21:12;;;;;;;23.98;15.23;;;;;;;;;;4999194;28;20038;-76
2023/09/08 01:24:05;;;;;;;19.75;13.80;;;;;;;;;;5004178;28;20523;-77
2023/09/08 01:26:36;;;;;;;18.27;12.32;;;;;;;;;;5004235;28;20046;-77
2023/09/08 01:29:05;;;;;;;20.75;12.75;;;;;;;;;;4996031;28;20129;-76
2023/09/08 01:31:30;;;;;;;19.95;13.27;;;;;;;;;;4995771;28;20389;-76
2023/09/08 01:33:56;;;;;;;19.25;13.57;;;;;;;;;;4998243;28;20042;-77
2023/09/08 01:36:21;;;;;;;19.85;13.93;;;;;;;;;;4997117;28;20123;-76
2023/09/08 01:38:46;;;;;;;26.85;16.60;;;;;;;;;;4994861;28;20022;-75
2023/09/08 01:41:11;;;;;;;26.00;17.10;;;;;;;;;;5003172;28;20068;-77
2023/09/08 01:43:37;;;;;;;29.20;15.07;;;;;;;;;;4997203;28;20039;-75
2023/09/08 01:46:02;;;;;;;19.50;13.23;;;;;;;;;;4986153;28;20038;-75
2023/09/08 01:48:27;;;;;;;21.80;12.80;;;;;;;;;;4984791;28;20068;-76
2023/09/08 01:50:53;;;;;;;17.63;12.52;;;;;;;;;;4990013;28;20093;-76
2023/09/08 01:53:18;;;;;;;20.05;12.50;;;;;;;;;;4987114;28;20034;-75
2023/09/08 01:55:43;;;;;;;18.95;12.05;;;;;;;;;;4990386;28;20511;-75
2023/09/08 01:58:08;;;;;;;20.15;11.55;;;;;;;;;;4994386;28;20038;-75
2023/09/08 02:00:35;;;;;;;15.73;11.88;;;;;;;;;;4984694;28;20145;-75
2023/09/08 02:03:00;;;;;;;15.35;11.10;;;;;;;;;;4984038;28;20046;-75
2023/09/08 02:05:26;;;;;;;15.20;11.35;;;;;;;;;;4985302;28;20484;-75
2023/09/08 02:07:52;;;;;;;14.93;11.68;;;;;;;;;;4999608;28;20050;-75
2023/09/08 02:10:17;;;;;;;15.20;11.27;;;;;;;;;;4973326;28;20038;-75
2023/09/08 02:12:43;;;;;;;15.45;11.60;;;;;;;;;;4971997;28;20030;-75
2023/09/08 02:15:09;;;;;;;13.73;10.48;;;;;;;;;;4979358;28;20019;-76
2023/09/08 02:17:34;;;;;;;17.02;12.30;;;;;;;;;;4972841;28;20102;-76
2023/09/08 02:19:59;;;;;;;17.58;11.95;;;;;;;;;;4981008;28;20114;-75
2023/09/08 02:22:24;;;;;;;24.73;14.57;;;;;;;;;;4975151;28;20366;-76
2023/09/08 02:24:51;;;;;;;24.67;15.20;;;;;;;;;;4992435;28;20053;-76
2023/09/08 02:27:17;;;;;;;22.67;14.75;;;;;;;;;;4991426;28;20022;-75
2023/09/08 02:29:42;;;;;;;21.25;14.80;;;;;;;;;;4987824;28;20050;-75
2023/09/08 02:32:07;;;;;;;32.03;18.40;;;;;;;;;;4997684;28;20069;-76
2023/09/08 02:34:39;;;;;;;28.45;16.73;;;;;;;;;;4974425;28;20453;-76
2023/09/08 02:37:04;;;;;;;28.20;14.30;;;;;;;;;;4996206;28;20034;-74
2023/09/08 02:39:30;;;;;;;25.30;15.88;;;;;;;;;;4985453;28;20160;-75
2023/09/08 02:41:55;;;;;;;34.45;18.40;;;;;;;;;;4958768;28;20038;-75
2023/09/08 02:44:21;;;;;;;38.10;20.02;;;;;;;;;;4983280;28;20042;-75
2023/09/08 02:46:47;;;;;;;29.27;17.88;;;;;;;;;;4971036;28;20026;-75
2023/09/08 02:49:13;;;;;;;35.95;21.00;;;;;;;;;;4991356;28;20035;-75
2023/09/08 02:51:38;;;;;;;39.50;22.17;;;;;;;;;;4979685;28;20111;-75
2023/09/08 02:54:03;;;;;;;31.60;20.48;;;;;;;;;;4996617;28;20155;-78
2023/09/08 02:56:28;;;;;;;39.25;19.27;;;;;;;;;;4996063;28;20458;-75
2023/09/08 02:58:54;;;;;;;32.78;17.10;;;;;;;;;;4999351;28;20018;-75
2023/09/08 03:01:20;;;;;;;30.05;18.15;;;;;;;;;;4991134;28;20145;-75
2023/09/08 03:03:46;;;;;;;34.53;17.95;;;;;;;;;;4993043;28;20401;-75
2023/09/08 03:06:13;;;;;;;34.00;19.73;;;;;;;;;;5006242;28;20033;-75
2023/09/08 03:08:38;;;;;;;48.42;21.63;;;;;;;;;;4991591;28;20030;-75
2023/09/08 03:11:05;;;;;;;41.70;21.20;;;;;;;;;;4993247;28;20041;-75
2023/09/08 03:13:31;;;;;;;36.90;19.15;;;;;;;;;;4995810;28;20110;-76
2023/09/08 03:15:56;;;;;;;33.47;19.15;;;;;;;;;;4994104;28;20464;-75
2023/09/08 03:18:22;;;;;;;22.98;15.65;;;;;;;;;;4995483;28;20108;-75
2023/09/08 03:20:49;;;;;;;33.17;15.25;;;;;;;;;;4990824;28;20030;-75
2023/09/08 03:23:15;;;;;;;21.23;13.95;;;;;;;;;;5007622;28;20035;-75
2023/09/08 03:25:40;;;;;;;23.13;13.88;;;;;;;;;;4995406;28;20113;-75
2023/09/08 03:28:05;;;;;;;23.15;13.15;;;;;;;;;;4991410;28;20027;-75
2023/09/08 03:30:30;;;;;;;24.67;13.85;;;;;;;;;;4990115;28;20037;-75
2023/09/08 03:32:56;;;;;;;21.42;14.20;;;;;;;;;;4994353;28;20053;-75
2023/09/08 03:35:21;;;;;;;19.73;13.65;;;;;;;;;;4986983;28;20538;-75
2023/09/08 03:37:46;;;;;;;16.63;11.93;;;;;;;;;;4993416;28;20046;-75
2023/09/08 03:40:11;;;;;;;22.00;13.98;;;;;;;;;;4991762;28;20049;-75
2023/09/08 03:42:37;;;;;;;23.67;16.40;;;;;;;;;;4994876;28;20038;-76
2023/09/08 03:45:02;;;;;;;31.65;18.40;;;;;;;;;;5017584;28;20068;-75
2023/09/08 03:47:27;;;;;;;37.17;20.38;;;;;;;;;;4995677;28;20392;-79
2023/09/08 03:49:53;;;;;;;41.70;20.95;;;;;;;;;;5008653;28;20034;-78
2023/09/08 03:52:18;;;;;;;34.70;20.83;;;;;;;;;;4995315;28;20091;-77
2023/09/08 03:54:46;;;;;;;34.28;20.75;;;;;;;;;;4990319;28;20122;-76
2023/09/08 03:57:11;;;;;;;44.22;22.45;;;;;;;;;;5006316;28;20034;-77
2023/09/08 03:59:36;;;;;;;35.35;20.52;;;;;;;;;;4999313;28;20018;-76
2023/09/08 04:02:02;;;;;;;43.92;22.45;;;;;;;;;;5005519;28;20026;-76
2023/09/08 04:04:27;;;;;;;38.35;20.83;;;;;;;;;;4983493;28;20186;-77
2023/09/08 04:06:52;;;;;;;37.33;20.75;;;;;;;;;;4999562;28;20045;-77
2023/09/08 04:09:17;;;;;;;33.47;19.20;;;;;;;;;;4997882;28;20050;-77
2023/09/08 04:11:43;;;;;;;29.80;18.60;;;;;;;;;;4974358;28;20018;-76
2023/09/08 04:14:08;;;;;;;31.70;19.42;;;;;;;;;;5000465;28;20044;-76
2023/09/08 04:16:33;;;;;;;36.97;19.20;;;;;;;;;;4997981;28;20412;-76
2023/09/08 04:18:59;;;;;;;30.77;18.48;;;;;;;;;;4984371;28;20076;-76
2023/09/08 04:21:24;;;;;;;37.38;21.23;;;;;;;;;;4997852;28;20414;-80
2023/09/08 04:23:49;;;;;;;42.75;22.13;;;;;;;;;;4998205;28;20030;-76
2023/09/08 04:26:14;;;;;;;41.85;22.65;;;;;;;;;;5002219;28;20433;-77
2023/09/08 04:28:40;;;;;;;42.00;22.20;;;;;;;;;;5000672;28;20044;-77
2023/09/08 04:31:05;;;;;;;36.97;19.48;;;;;;;;;;4977515;28;20467;-76
2023/09/08 04:33:30;;;;;;;40.63;21.52;;;;;;;;;;4984684;28;20099;-77
2023/09/08 04:35:56;;;;;;;37.40;20.40;;;;;;;;;;4985060;28;20022;-77
2023/09/08 04:38:21;;;;;;;37.50;20.75;;;;;;;;;;4979291;28;20352;-77
2023/09/08 04:40:46;;;;;;;39.33;19.70;;;;;;;;;;5007274;28;20052;-75
2023/09/08 04:43:12;;;;;;;37.47;19.83;;;;;;;;;;4983005;28;21029;-77
2023/09/08 04:45:37;;;;;;;35.22;19.13;;;;;;;;;;4973698;28;20133;-77
2023/09/08 04:48:04;;;;;;;36.78;19.13;;;;;;;;;;5004146;28;20025;-75
2023/09/08 04:50:29;;;;;;;39.17;19.25;;;;;;;;;;4986409;28;20348;-75
2023/09/08 04:52:54;;;;;;;36.78;20.50;;;;;;;;;;4982604;28;20095;-76
2023/09/08 04:55:19;;;;;;;42.15;19.55;;;;;;;;;;4993132;28;20038;-76
2023/09/08 04:57:45;;;;;;;31.23;19.13;;;;;;;;;;4977382;28;20042;-75
2023/09/08 05:00:11;;;;;;;31.42;19.10;;;;;;;;;;4996419;28;20026;-75
2023/09/08 05:02:37;;;;;;;28.15;17.92;;;;;;;;;;4996189;28;20428;-77
2023/09/08 05:05:02;;;;;;;30.85;16.58;;;;;;;;;;4988470;28;20042;-76
2023/09/08 05:07:28;;;;;;;25.90;16.63;;;;;;;;;;4993502;28;20033;-76
2023/09/08 05:09:53;;;;;;;29.95;16.95;;;;;;;;;;4993491;28;20081;-76
2023/09/08 05:12:18;;;;;;;29.75;15.95;;;;;;;;;;4993239;28;20445;-76
2023/09/08 05:14:44;;;;;;;31.05;16.52;;;;;;;;;;4990902;28;20464;-76
2023/09/08 05:17:09;;;;;;;27.88;17.77;;;;;;;;;;4999343;28;20084;-75
2023/09/08 05:19:34;;;;;;;32.25;18.48;;;;;;;;;;4997707;28;20036;-76
2023/09/08 05:22:00;;;;;;;24.52;16.50;;;;;;;;;;4987800;28;20049;-75
2023/09/08 05:24:26;;;;;;;25.63;16.48;;;;;;;;;;5000622;28;20088;-75
2023/09/08 05:26:52;;;;;;;23.30;15.68;;;;;;;;;;4990033;28;20025;-75
2023/09/08 05:29:17;;;;;;;19.77;14.15;;;;;;;;;;4989776;28;20685;-75
2023/09/08 05:31:43;;;;;;;18.92;13.90;;;;;;;;;;4993864;28;20038;-76
2023/09/08 05:34:08;;;;;;;19.05;13.10;;;;;;;;;;4987664;28;20057;-75
2023/09/08 05:36:36;;;;;;;16.63;12.70;;;;;;;;;;4978484;28;20533;-76
2023/09/08 05:39:02;;;;;;;12.77;10.95;;;;;;;;;;4985122;28;20018;-76
2023/09/08 05:41:28;;;;;;;14.43;11.50;;;;;;;;;;4973058;28;20421;-76
2023/09/08 05:43:53;;;;;;;16.98;10.70;;;;;;;;;;4983592;28;20038;-76
2023/09/08 05:46:19;;;;;;;13.45;10.88;;;;;;;;;;4985839;28;20042;-76
2023/09/08 05:48:45;;;;;;;13.52;10.45;;;;;;;;;;4995746;28;20070;-77
2023/09/08 05:51:10;;;;;;;14.25;11.18;;;;;;;;;;4992839;28;20111;-76
2023/09/08 05:53:38;;;;;;;12.68;10.75;;;;;;;;;;4986304;28;20421;-76
2023/09/08 05:56:03;;;;;;;14.18;9.93;;;;;;;;;;4993475;28;20277;-77
2023/09/08 05:58:29;;;;;;;17.67;10.35;;;;;;;;;;4996464;28;20038;-76
2023/09/08 06:00:54;;;;;;;11.45;9.80;;;;;;;;;;4974520;28;20608;-76
2023/09/08 06:03:20;;;;;;;13.00;9.50;;;;;;;;;;4989413;28;20022;-75
2023/09/08 06:05:45;;;;;;;11.48;9.05;;;;;;;;;;4991342;28;20026;-76
2023/09/08 06:08:10;;;;;;;13.70;7.68;;;;;;;;;;4991148;28;20084;-76
2023/09/08 06:10:36;;;;;;;10.40;8.43;;;;;;;;;;4987742;28;20042;-77
2023/09/08 06:13:01;;;;;;;13.65;8.38;;;;;;;;;;4989242;28;20463;-77
2023/09/08 06:15:26;;;;;;;9.45;8.45;;;;;;;;;;4990369;28;20067;-76
2023/09/08 06:17:52;;;;;;;12.95;8.25;;;;;;;;;;4983948;28;20042;-77
2023/09/08 06:20:17;;;;;;;10.52;7.60;;;;;;;;;;4990301;28;20113;-77
2023/09/08 06:22:42;;;;;;;10.63;7.97;;;;;;;;;;4996249;28;20450;-76
2023/09/08 06:25:08;;;;;;;6.85;6.15;;;;;;;;;;4996336;28;20245;-77
2023/09/08 06:27:34;;;;;;;8.27;7.18;;;;;;;;;;4978128;28;20646;-77
2023/09/08 06:29:59;;;;;;;9.60;7.50;;;;;;;;;;4980856;28;20178;-77
2023/09/08 06:32:24;;;;;;;9.23;6.93;;;;;;;;;;4979516;28;20065;-77
2023/09/08 06:34:50;;;;;;;7.22;6.53;;;;;;;;;;4991869;28;20443;-76
2023/09/08 06:37:15;;;;;;;6.97;6.28;;;;;;;;;;4978708;28;20062;-77
2023/09/08 06:39:40;;;;;;;13.07;6.47;;;;;;;;;;4979471;28;20091;-77
2023/09/08 06:42:06;;;;;;;7.13;6.43;;;;;;;;;;4983132;28;20026;-77
2023/09/08 06:44:31;;;;;;;8.15;7.22;;;;;;;;;;4999498;28;20030;-78
2023/09/08 06:46:56;;;;;;;7.78;6.82;;;;;;;;;;4998725;28;20030;-77
2023/09/08 06:49:21;;;;;;;6.90;6.28;;;;;;;;;;4997221;28;20064;-77
2023/09/08 06:51:48;;;;;;;6.97;6.15;;;;;;;;;;4981564;28;20088;-78
2023/09/08 06:54:13;;;;;;;7.53;6.00;;;;;;;;;;5002638;28;20523;-78
2023/09/08 06:56:39;;;;;;;7.40;6.10;;;;;;;;;;4995594;28;20050;-78
2023/09/08 06:59:04;;;;;;;7.57;5.75;;;;;;;;;;4985534;28;20037;-77
2023/09/08 07:01:30;;;;;;;8.57;5.85;;;;;;;;;;4990786;28;20199;-77
2023/09/08 07:03:55;;;;;;;6.10;5.60;;;;;;;;;;4992610;28;20038;-77
2023/09/08 07:06:22;;;;;;;7.97;5.55;;;;;;;;;;4981418;28;20054;-77
2023/09/08 07:08:49;;;;;;;6.38;5.47;;;;;;;;;;4980780;28;20454;-77
2023/09/08 07:11:14;;;;;;;8.10;5.88;;;;;;;;;;4991143;28;20506;-77
2023/09/08 07:13:40;;;;;;;11.07;5.30;;;;;;;;;;4984072;28;20129;-77
2023/09/08 07:16:05;;;;;;;9.18;5.55;;;;;;;;;;4989057;28;20037;-77
2023/09/08 07:18:34;;;;;;;8.90;5.63;;;;;;;;;;4980963;28;20086;-77
2023/09/08 07:21:00;;;;;;;5.45;4.93;;;;;;;;;;4996069;28;20049;-77
2023/09/08 07:23:26;;;;;;;12.05;5.80;;;;;;;;;;4988074;28;20548;-77
2023/09/08 07:25:51;;;;;;;5.82;5.32;;;;;;;;;;4982523;28;20034;-77
2023/09/08 07:28:16;;;;;;;6.63;5.65;;;;;;;;;;4996939;28;20098;-78
2023/09/08 07:30:42;;;;;;;7.97;5.28;;;;;;;;;;4996436;28;20038;-77
2023/09/08 07:33:08;;;;;;;6.15;5.28;;;;;;;;;;4984802;28;20099;-78
2023/09/08 07:35:37;;;;;;;6.13;5.40;;;;;;;;;;4982550;28;20022;-78
2023/09/08 07:38:02;;;;;;;8.13;5.55;;;;;;;;;;4986332;28;20026;-77
2023/09/08 07:40:28;;;;;;;7.43;5.72;;;;;;;;;;4969109;28;20580;-77
2023/09/08 07:42:53;;;;;;;7.68;5.63;;;;;;;;;;4987559;28;20045;-78
2023/09/08 07:45:18;;;;;;;8.68;6.50;;;;;;;;;;4973216;28;20373;-78
2023/09/08 07:47:45;;;;;;;9.05;6.32;;;;;;;;;;4994336;28;20040;-77
2023/09/08 07:50:19;;;;;;;11.48;6.40;;;;;;;;;;4991412;28;20400;-77
2023/09/08 07:52:45;;;;;;;7.88;7.05;;;;;;;;;;4995012;28;20333;-77
2023/09/08 07:55:10;;;;;;;8.43;7.00;;;;;;;;;;4984001;28;20035;-75
2023/09/08 07:57:36;;;;;;;8.43;6.82;;;;;;;;;;4995771;28;20054;-75
2023/09/08 08:00:02;;;;;;;9.32;6.75;;;;;;;;;;4990483;28;20030;-75
2023/09/08 08:02:27;;;;;;;7.55;6.75;;;;;;;;;;4994631;28;20026;-79
2023/09/08 08:04:52;;;;;;;11.88;7.45;;;;;;;;;;4968172;28;20153;-78
2023/09/08 08:07:17;;;;;;;11.52;7.13;;;;;;;;;;4985704;28;20038;-79
2023/09/08 08:09:43;;;;;;;8.25;6.28;;;;;;;;;;4984793;28;20046;-79
2023/09/08 08:12:08;;;;;;;11.05;6.82;;;;;;;;;;4995228;28;20035;-79
2023/09/08 08:14:33;;;;;;;9.68;7.55;;;;;;;;;;4995921;28;20033;-77
2023/09/08 08:16:59;;;;;;;7.03;6.35;;;;;;;;;;4995518;28;20191;-78
2023/09/08 08:19:24;;;;;;;11.38;6.93;;;;;;;;;;4990564;28;20022;-79
2023/09/08 08:21:49;;;;;;;9.70;6.90;;;;;;;;;;4989748;28;20031;-78
2023/09/08 08:24:16;;;;;;;10.63;6.82;;;;;;;;;;4984286;28;20026;-79
2023/09/08 08:26:41;;;;;;;12.63;7.35;;;;;;;;;;4984384;28;20026;-78
2023/09/08 08:29:06;;;;;;;7.68;6.88;;;;;;;;;;4982053;28;20041;-79
2023/09/08 08:31:33;;;;;;;11.85;6.70;;;;;;;;;;4967805;28;20050;-79
2023/09/08 08:33:58;;;;;;;8.05;7.07;;;;;;;;;;4965312;28;20047;-78
2023/09/08 08:36:23;;;;;;;7.78;6.93;;;;;;;;;;4965701;28;20053;-79
2023/09/08 08:38:48;;;;;;;7.10;6.40;;;;;;;;;;4984133;28;20023;-79
2023/09/08 08:41:14;;;;;;;15.55;7.53;;;;;;;;;;4981534;28;20038;-79
2023/09/08 08:43:40;;;;;;;8.27;6.85;;;;;;;;;;4966873;28;20091;-80
2023/09/08 08:46:06;;;;;;;7.65;6.45;;;;;;;;;;4994963;28;20909;-78
2023/09/08 08:48:33;;;;;;;7.97;6.55;;;;;;;;;;4976790;28;20401;-78
2023/09/08 08:51:00;;;;;;;9.13;6.40;;;;;;;;;;4980198;28;20488;-78
2023/09/08 08:53:26;;;;;;;13.15;6.43;;;;;;;;;;4985402;28;20187;-78
2023/09/08 08:55:55;;;;;;;7.75;6.95;;;;;;;;;;4969930;28;20039;-78
2023/09/08 08:58:24;;;;;;;13.55;7.10;;;;;;;;;;4996106;28;20053;-79
2023/09/08 09:00:52;;;;;;;8.10;6.80;;;;;;;;;;4994166;28;20391;-79
2023/09/08 09:03:18;;;;;;;9.30;6.85;;;;;;;;;;4985401;28;20056;-78
2023/09/08 09:05:43;;;;;;;9.88;7.05;;;;;;;;;;4989780;28;20042;-79
2023/09/08 09:08:11;;;;;;;9.05;6.55;;;;;;;;;;4971679;28;20054;-79
2023/09/08 09:10:36;;;;;;;8.43;6.68;;;;;;;;;;4974559;28;20057;-79
2023/09/08 09:13:02;;;;;;;9.23;6.50;;;;;;;;;;4983197;28;20092;-79
2023/09/08 09:15:29;;;;;;;12.73;7.20;;;;;;;;;;4994325;28;20105;-79
2023/09/08 09:18:04;;;;;;;13.07;6.03;;;;;;;;;;4996954;28;20044;-78
2023/09/08 09:20:29;;;;;;;9.75;6.75;;;;;;;;;;4975412;28;20105;-78
2023/09/08 09:22:55;;;;;;;11.05;6.88;;;;;;;;;;4990327;28;20133;-79
2023/09/08 09:25:25;;;;;;;9.05;7.07;;;;;;;;;;4994461;28;20049;-79
2023/09/08 09:27:55;;;;;;;7.40;6.53;;;;;;;;;;4984602;28;20045;-79
2023/09/08 09:30:21;;;;;;;8.98;6.80;;;;;;;;;;4989959;28;20369;-78
2023/09/08 09:32:49;;;;;;;7.75;6.32;;;;;;;;;;4991091;28;20023;-78
2023/09/08 09:35:15;;;;;;;10.35;7.22;;;;;;;;;;4989738;28;20068;-78
2023/09/08 09:37:41;;;;;;;11.77;7.03;;;;;;;;;;4980734;28;20504;-77
2023/09/08 09:40:07;;;;;;;7.65;6.95;;;;;;;;;;4978271;28;20126;-78
2023/09/08 09:42:33;;;;;;;9.45;6.75;;;;;;;;;;4977001;28;20038;-79
2023/09/08 09:45:00;;;;;;;7.45;6.32;;;;;;;;;;4967285;28;20713;-78
2023/09/08 09:47:26;;;;;;;7.22;6.43;;;;;;;;;;4988122;28;20038;-78
2023/09/08 09:49:52;;;;;;;7.05;6.32;;;;;;;;;;5001249;28;20062;-77
2023/09/08 09:52:25;;;;;;;11.48;6.47;;;;;;;;;;4986288;28;20042;-77
2023/09/08 09:54:53;;;;;;;7.25;6.55;;;;;;;;;;4995060;28;20042;-77
2023/09/08 09:57:21;;;;;;;14.13;6.80;;;;;;;;;;4995170;28;20026;-77
2023/09/08 09:59:48;;;;;;;8.35;7.38;;;;;;;;;;4994130;28;20446;-77
2023/09/08 10:02:14;;;;;;;8.20;7.20;;;;;;;;;;4995884;28;20571;-77
2023/09/08 10:04:43;;;;;;;8.20;7.00;;;;;;;;;;4991112;28;20130;-77
2023/09/08 10:07:08;;;;;;;7.55;6.80;;;;;;;;;;4989133;28;20662;-77
2023/09/08 10:09:36;;;;;;;8.75;7.75;;;;;;;;;;4972304;28;20354;-77
2023/09/08 10:12:04;;;;;;;7.25;6.50;;;;;;;;;;4990026;28;20084;-77
2023/09/08 10:14:31;;;;;;;10.25;6.93;;;;;;;;;;4990225;28;20054;-77
2023/09/08 10:16:59;;;;;;;10.45;6.97;;;;;;;;;;4999935;28;20049;-77
2023/09/08 10:19:26;;;;;;;7.30;6.60;;;;;;;;;;4992042;28;20429;-77
2023/09/08 10:21:54;;;;;;;15.55;7.05;;;;;;;;;;4996042;28;20047;-77
2023/09/08 10:24:26;;;;;;;7.63;6.85;;;;;;;;;;4996416;28;20496;-77
2023/09/08 10:26:59;;;;;;;21.05;7.20;;;;;;;;;;4995685;28;20030;-77
2023/09/08 10:29:27;;;;;;;8.98;6.55;;;;;;;;;;4991733;28;20034;-77
2023/09/08 10:31:54;;;;;;;12.32;7.00;;;;;;;;;;4968465;28;20050;-77
2023/09/08 10:34:21;;;;;;;10.55;6.65;;;;;;;;;;4991543;28;20046;-77
2023/09/08 10:36:46;;;;;;;12.55;6.55;;;;;;;;;;4998175;28;20121;-77
2023/09/08 10:39:35;;;;;;;11.82;6.93;;;;;;;;;;4989381;28;20461;-77
2023/09/08 10:42:19;;;;;;;7.47;6.78;;;;;;;;;;4993982;28;20026;-77
2023/09/08 10:44:44;;;;;;;8.27;6.55;;;;;;;;;;4988236;28;20053;-77
2023/09/08 10:47:10;;;;;;;9.80;6.25;;;;;;;;;;4996159;28;20038;-77
2023/09/08 10:49:36;;;;;;;7.82;6.78;;;;;;;;;;4977189;28;20034;-77
2023/09/08 10:52:09;;;;;;;8.93;6.47;;;;;;;;;;4990098;28;20030;-78
2023/09/08 10:54:44;;;;;;;9.25;6.55;;;;;;;;;;4974398;28;20031;-77
2023/09/08 10:57:14;;;;;;;9.20;7.10;;;;;;;;;;4985220;28;20026;-77
2023/09/08 10:59:44;;;;;;;10.13;6.40;;;;;;;;;;4990897;28;20038;-77
2023/09/08 11:02:47;;;;;;;6.97;6.20;;;;;;;;;;4972368;28;20087;-77
2023/09/08 11:05:14;;;;;;;9.07;6.43;;;;;;;;;;4995094;28;20038;-78
2023/09/08 11:07:44;;;;;;;7.18;6.47;;;;;;;;;;4993830;28;20033;-77
2023/09/08 11:10:11;;;;;;;9.55;6.40;;;;;;;;;;4986209;28;20144;-77
2023/09/08 11:12:36;;;;;;;6.97;6.30;;;;;;;;;;4983376;28;20070;-77
2023/09/08 11:15:05;;;;;;;9.52;6.20;;;;;;;;;;4993389;28;20150;-77
2023/09/08 11:17:31;;;;;;;7.60;6.22;;;;;;;;;;4983217;28;20050;-77
2023/09/08 11:19:57;;;;;;;9.02;6.25;;;;;;;;;;4993744;28;20110;-77
2023/09/08 11:22:25;;;;;;;10.65;6.22;;;;;;;;;;4987722;28;20579;-77
2023/09/08 11:24:56;;;;;;;8.40;6.55;;;;;;;;;;4992815;28;20059;-78
2023/09/08 11:27:23;;;;;;;8.40;6.88;;;;;;;;;;4984489;28;20030;-75
2023/09/08 11:29:49;;;;;;;8.93;6.55;;;;;;;;;;4987133;28;20252;-77
2023/09/08 11:32:14;;;;;;;12.93;6.68;;;;;;;;;;4982988;28;20042;-77
2023/09/08 11:34:41;;;;;;;8.25;6.53;;;;;;;;;;4981361;28;20035;-77
2023/09/08 11:37:14;;;;;;;10.45;6.68;;;;;;;;;;4976653;28;20058;-77
2023/09/08 11:39:40;;;;;;;8.13;6.97;;;;;;;;;;4956463;28;20047;-77
2023/09/08 11:42:07;;;;;;;10.95;6.32;;;;;;;;;;4978094;28;20083;-77
2023/09/08 11:44:34;;;;;;;9.50;6.93;;;;;;;;;;4981720;28;20480;-77
2023/09/08 11:47:01;;;;;;;13.57;6.30;;;;;;;;;;4974951;28;20043;-77
2023/09/08 11:49:26;;;;;;;8.77;6.22;;;;;;;;;;4985649;28;20045;-77
2023/09/08 11:51:52;;;;;;;10.38;6.63;;;;;;;;;;4986522;28;20671;-77
2023/09/08 11:54:17;;;;;;;6.72;6.00;;;;;;;;;;4982843;28;20051;-77
2023/09/08 11:56:43;;;;;;;9.20;6.38;;;;;;;;;;4986502;28;20034;-74
2023/09/08 11:59:08;;;;;;;7.97;6.28;;;;;;;;;;4985622;28;20166;-74
2023/09/08 12:01:34;;;;;;;8.00;6.70;;;;;;;;;;4975651;28;20154;-74
2023/09/08 12:03:59;;;;;;;7.57;6.88;;;;;;;;;;4975274;28;20038;-74
2023/09/08 12:06:26;;;;;;;8.52;6.75;;;;;;;;;;4976688;28;20034;-77
2023/09/08 12:08:53;;;;;;;7.70;6.90;;;;;;;;;;4976539;28;20155;-77
2023/09/08 12:11:18;;;;;;;7.40;6.70;;;;;;;;;;4977964;28;20070;-77
2023/09/08 12:13:43;;;;;;;8.32;7.28;;;;;;;;;;4986595;28;20059;-77
2023/09/08 12:16:19;;;;;;;7.50;6.38;;;;;;;;;;4987745;28;20033;-77
2023/09/08 12:18:45;;;;;;;10.30;6.45;;;;;;;;;;4985063;28;20062;-77
2023/09/08 12:21:11;;;;;;;9.05;6.65;;;;;;;;;;4989921;28;20053;-77
2023/09/08 12:23:50;;;;;;;10.75;6.88;;;;;;;;;;4965589;28;20034;-77
2023/09/08 12:26:16;;;;;;;7.82;6.50;;;;;;;;;;4969219;28;20146;-75
2023/09/08 12:28:42;;;;;;;9.40;6.65;;;;;;;;;;4972351;28;20125;-76
2023/09/08 12:31:08;;;;;;;8.35;6.07;;;;;;;;;;4992425;28;20438;-76
2023/09/08 12:33:34;;;;;;;8.90;6.40;;;;;;;;;;4996718;28;20061;-76
2023/09/08 12:35:59;;;;;;;16.02;6.90;;;;;;;;;;4975798;28;20057;-76
2023/09/08 12:38:31;;;;;;;6.95;6.22;;;;;;;;;;4984734;28;20687;-76
2023/09/08 12:40:56;;;;;;;9.88;6.40;;;;;;;;;;4976633;28;20529;-76
2023/09/08 12:43:21;;;;;;;12.23;6.60;;;;;;;;;;4960946;28;20045;-76
2023/09/08 12:45:47;;;;;;;6.40;5.80;;;;;;;;;;4989182;28;20272;-76
2023/09/08 12:48:12;;;;;;;9.43;6.40;;;;;;;;;;4990600;28;20404;-76
2023/09/08 12:50:37;;;;;;;6.20;5.60;;;;;;;;;;4981387;28;20389;-76
2023/09/08 12:53:03;;;;;;;9.35;6.70;;;;;;;;;;4976060;28;20481;-76
2023/09/08 12:55:28;;;;;;;6.90;6.20;;;;;;;;;;4986291;28;20531;-76
2023/09/08 12:57:54;;;;;;;7.97;6.30;;;;;;;;;;4974473;28;20567;-76
2023/09/08 13:00:23;;;;;;;11.88;6.25;;;;;;;;;;4992094;28;20013;-76
2023/09/08 13:02:49;;;;;;;9.68;6.65;;;;;;;;;;4998544;28;20425;-75
2023/09/08 13:05:14;;;;;;;12.38;6.25;;;;;;;;;;4987369;28;20030;-76
2023/09/08 13:07:39;;;;;;;9.45;6.07;;;;;;;;;;4989789;28;20060;-76
2023/09/08 13:10:06;;;;;;;9.02;6.68;;;;;;;;;;4986179;28;20130;-76
2023/09/08 13:12:31;;;;;;;10.35;6.78;;;;;;;;;;4967993;28;20069;-76
2023/09/08 13:14:57;;;;;;;7.75;6.28;;;;;;;;;;4997233;28;20083;-76
2023/09/08 13:17:22;;;;;;;6.20;5.68;;;;;;;;;;4992876;28;20069;-76
2023/09/08 13:19:48;;;;;;;9.45;6.20;;;;;;;;;;4987812;28;20030;-75
2023/09/08 13:22:13;;;;;;;7.57;6.13;;;;;;;;;;4991875;28;20033;-76
2023/09/08 13:24:39;;;;;;;8.52;6.30;;;;;;;;;;4997850;28;20091;-76
2023/09/08 13:27:07;;;;;;;6.72;6.10;;;;;;;;;;4990200;28;20106;-76
2023/09/08 13:29:32;;;;;;;7.03;6.32;;;;;;;;;;4988777;28;20046;-76
2023/09/08 13:31:57;;;;;;;8.18;6.25;;;;;;;;;;4986876;28;20054;-75
2023/09/08 13:34:23;;;;;;;6.45;5.85;;;;;;;;;;4982192;28;20030;-76
2023/09/08 13:36:49;;;;;;;11.05;6.10;;;;;;;;;;4989675;28;20049;-76
2023/09/08 13:39:14;;;;;;;8.43;6.15;;;;;;;;;;4977329;28;20041;-76
2023/09/08 13:41:53;;;;;;;15.05;5.97;;;;;;;;;;5000632;28;20034;-76
2023/09/08 13:44:20;;;;;;;7.95;5.70;;;;;;;;;;4988745;28;20031;-76
2023/09/08 13:46:50;;;;;;;8.93;5.57;;;;;;;;;;4988196;28;20460;-76
2023/09/08 13:49:16;;;;;;;7.55;6.05;;;;;;;;;;4971422;28;20026;-77
2023/09/08 13:51:42;;;;;;;7.40;5.68;;;;;;;;;;4992894;28;20408;-77
2023/09/08 13:54:08;;;;;;;9.88;5.82;;;;;;;;;;4974108;28;20429;-77
2023/09/08 13:56:34;;;;;;;5.68;5.05;;;;;;;;;;4997172;28;20071;-77
2023/09/08 13:59:00;;;;;;;8.15;5.47;;;;;;;;;;4990272;28;20439;-77
2023/09/08 14:01:27;;;;;;;9.27;5.50;;;;;;;;;;4983630;28;20038;-76
2023/09/08 14:03:53;;;;;;;8.27;6.30;;;;;;;;;;4995915;28;20034;-78
2023/09/08 14:06:18;;;;;;;6.35;5.60;;;;;;;;;;4988471;28;20030;-78
2023/09/08 14:08:44;;;;;;;8.55;6.68;;;;;;;;;;4978242;28;20354;-78
2023/09/08 14:11:09;;;;;;;6.85;6.03;;;;;;;;;;4989588;28;20568;-78
2023/09/08 14:13:35;;;;;;;10.15;6.50;;;;;;;;;;4990773;28;20039;-78
2023/09/08 14:16:00;;;;;;;8.27;6.57;;;;;;;;;;4955883;28;20034;-78
2023/09/08 14:18:25;;;;;;;11.88;6.63;;;;;;;;;;4979477;28;20031;-78
2023/09/08 14:20:51;;;;;;;14.15;7.13;;;;;;;;;;4981011;28;20029;-78
2023/09/08 14:23:16;;;;;;;9.13;6.40;;;;;;;;;;4964763;28;20501;-78
2023/09/08 14:25:41;;;;;;;8.23;6.85;;;;;;;;;;4989606;28;20075;-78